Time;durP1;ratioP1;P1;durP2;ratioP2;P2;SDS_P1;SDS_P2;PMS_P1;PMS_P2;Temp;Humidity;BMP_temperature;BMP_pressure;BME280_temperature;BME280_humidity;BME280_pressure;Samples;Min_cycle;Max_cycle;Signal;HPM_P1;HPM_P2
2022/06/06 00:00:39;;;;;;;6.77;2.63;;;;;;;26.10;100.00;100968.50;2073914;28;20643;-68
2022/06/06 00:01:41;;;;;;;6.10;2.60;;;;;;;26.50;100.00;101047.09;2073891;28;20570;-68
2022/06/06 00:02:41;;;;;;;7.10;2.83;;;;;;;26.47;100.00;101048.19;2073923;28;20677;-68
2022/06/06 00:03:43;;;;;;;5.33;2.43;;;;;;;26.45;100.00;101048.72;2073970;28;20576;-68
2022/06/06 00:04:43;;;;;;;3.20;2.90;;;;;;;26.29;100.00;101048.88;2073898;28;20639;-68
2022/06/06 00:05:47;;;;;;;6.23;2.83;;;;;;;26.26;100.00;101049.94;2073944;28;20544;-68
2022/06/06 00:06:47;;;;;;;5.87;2.63;;;;;;;26.18;100.00;101046.91;2073978;28;20208;-68
2022/06/06 00:07:48;;;;;;;5.40;3.00;;;;;;;26.22;100.00;101055.91;2065132;28;20186;-68
2022/06/06 00:08:48;;;;;;;5.87;3.17;;;;;;;26.02;100.00;101038.53;2064993;28;20186;-68
2022/06/06 00:09:49;;;;;;;8.33;2.97;;;;;;;26.07;100.00;101051.91;2065192;28;20195;-68
2022/06/06 00:10:55;;;;;;;6.77;3.17;;;;;;;26.20;100.00;101080.47;2073823;28;20188;-68
2022/06/06 00:11:57;;;;;;;6.77;2.83;;;;;;;25.40;100.00;100996.91;2073774;28;20189;-68
2022/06/06 00:12:58;;;;;;;5.30;2.93;;;;;;;25.99;100.00;101099.25;2073681;28;20232;-67
2022/06/06 00:13:59;;;;;;;6.33;3.17;;;;;;;25.83;100.00;101068.84;2073707;28;20189;-68
2022/06/06 00:14:59;;;;;;;4.40;3.20;;;;;;;25.92;100.00;101079.91;2073807;28;20209;-68
2022/06/06 00:16:00;;;;;;;4.40;2.87;;;;;;;25.35;100.00;100975.03;2073788;28;20185;-68
2022/06/06 00:17:01;;;;;;;4.53;2.87;;;;;;;25.91;100.00;101050.75;2064961;28;20194;-68
2022/06/06 00:18:02;;;;;;;7.00;3.13;;;;;;;25.68;100.00;101012.44;2065043;28;20587;-68
2022/06/06 00:19:04;;;;;;;3.97;3.00;;;;;;;25.51;100.00;101000.44;2073754;28;20719;-68
2022/06/06 00:20:05;;;;;;;5.93;3.27;;;;;;;25.87;100.00;101064.44;2073550;28;20205;-69
2022/06/06 00:21:08;;;;;;;4.97;3.23;;;;;;;25.64;100.00;101034.66;2073830;28;20177;-68
2022/06/06 00:22:09;;;;;;;6.07;3.30;;;;;;;25.89;100.00;101076.03;2073826;28;20185;-68
2022/06/06 00:23:09;;;;;;;5.50;3.27;;;;;;;25.38;100.00;101014.47;2073687;28;20205;-67
2022/06/06 00:24:11;;;;;;;6.73;3.47;;;;;;;25.80;100.00;101099.06;2073796;28;20184;-68
2022/06/06 00:25:11;;;;;;;5.57;3.57;;;;;;;25.75;100.00;101091.34;2073724;28;20268;-68
2022/06/06 00:26:14;;;;;;;6.57;3.80;;;;;;;25.70;100.00;101114.88;2073515;28;20173;-68
2022/06/06 00:27:14;;;;;;;6.30;4.00;;;;;;;25.63;100.00;101118.28;2073541;28;20272;-68
2022/06/06 00:28:15;;;;;;;6.10;3.87;;;;;;;24.95;100.00;101036.06;2064832;28;20187;-67
2022/06/06 00:29:18;;;;;;;7.87;4.50;;;;;;;25.51;100.00;101133.03;2065020;28;20569;-68
2022/06/06 00:30:19;;;;;;;8.17;4.67;;;;;;;25.56;100.00;101123.72;2073609;28;20181;-68
2022/06/06 00:35:20;;;;;;;10.03;4.10;;;;;;;25.43;100.00;101120.72;2073716;28;20170;-69
2022/06/06 00:36:20;;;;;;;8.53;4.73;;;;;;;25.24;100.00;101091.38;2073537;28;20632;-68
2022/06/06 00:37:22;;;;;;;6.53;4.20;;;;;;;25.44;100.00;101110.91;2073581;28;20279;-68
2022/06/06 00:38:24;;;;;;;5.73;4.00;;;;;;;25.49;100.00;101110.09;2073610;28;20178;-68
2022/06/06 00:39:25;;;;;;;7.77;4.30;;;;;;;25.46;100.00;101105.47;2073559;28;20260;-67
2022/06/06 00:40:25;;;;;;;7.07;4.17;;;;;;;25.41;100.00;101101.38;2064678;28;20543;-68
2022/06/06 00:41:26;;;;;;;6.03;3.97;;;;;;;25.45;100.00;101106.78;2064857;28;20197;-68
2022/06/06 00:42:38;;;;;;;6.13;4.30;;;;;;;25.35;100.00;101100.63;2073548;28;20188;-68
2022/06/06 00:43:41;;;;;;;6.93;4.60;;;;;;;24.81;100.00;101034.31;2073461;28;20185;-67
2022/06/06 00:44:41;;;;;;;9.63;4.50;;;;;;;24.78;100.00;101043.09;2073597;28;20188;-67
2022/06/06 00:45:44;;;;;;;8.10;4.50;;;;;;;25.18;100.00;101116.16;2073358;28;20186;-68
2022/06/06 00:46:50;;;;;;;9.03;4.87;;;;;;;25.14;100.00;101119.28;2073415;28;20596;-67
2022/06/06 00:47:58;;;;;;;8.07;4.97;;;;;;;24.99;100.00;101118.81;2064688;28;20186;-68
2022/06/06 00:48:58;;;;;;;7.63;4.83;;;;;;;25.03;100.00;101139.13;2065761;28;20166;-68
2022/06/06 00:50:01;;;;;;;7.63;4.80;;;;;;;24.67;100.00;101091.31;2073454;28;20172;-68
2022/06/06 00:51:15;;;;;;;9.03;4.30;;;;;;;24.76;100.00;101130.69;2073303;28;20182;-67
2022/06/06 00:52:26;;;;;;;7.37;5.43;;;;;;;24.85;100.00;101147.44;2073463;28;20177;-67
2022/06/06 00:53:32;;;;;;;9.90;5.23;;;;;;;24.76;100.00;101151.31;2073299;28;20166;-67
2022/06/06 00:54:33;;;;;;;12.10;5.77;;;;;;;24.82;100.00;101160.56;2064652;28;20682;-68
2022/06/06 00:55:41;;;;;;;18.27;7.23;;;;;;;24.31;100.00;101090.28;2064287;28;20570;-68
2022/06/06 00:56:50;;;;;;;14.47;7.30;;;;;;;24.66;100.00;101183.28;2073024;28;20248;-68
2022/06/06 00:57:56;;;;;;;17.43;8.00;;;;;;;24.47;100.00;101190.72;2073204;28;20188;-67
2022/06/06 00:59:01;;;;;;;22.10;9.97;;;;;;;24.36;100.00;101196.41;2072930;28;20785;-66
2022/06/06 01:00:09;;;;;;;25.10;9.77;;;;;;;24.33;100.00;101201.03;2072688;28;20200;-66
2022/06/06 01:01:09;;;;;;;20.03;9.97;;;;;;;24.32;100.00;101191.00;2072553;28;20168;-67
2022/06/06 01:02:12;;;;;;;21.17;9.23;;;;;;;23.81;100.00;101131.16;2072893;28;20184;-67
2022/06/06 01:03:17;;;;;;;24.83;11.00;;;;;;;23.99;100.00;101167.50;2072550;28;20236;-67
2022/06/06 01:04:21;;;;;;;20.43;10.03;;;;;;;24.32;100.00;101213.66;2072991;28;20720;-67
2022/06/06 01:05:23;;;;;;;15.50;8.70;;;;;;;24.33;100.00;101200.25;2064241;28;20194;-67
2022/06/06 01:06:24;;;;;;;13.23;8.27;;;;;;;23.94;100.00;101146.38;2064258;28;20232;-67
2022/06/06 01:07:25;;;;;;;13.33;8.80;;;;;;;24.32;100.00;101202.31;2072771;28;20173;-67
2022/06/06 01:08:27;;;;;;;16.20;8.80;;;;;;;24.36;100.00;101213.41;2072296;28;20189;-67
2022/06/06 01:09:27;;;;;;;12.70;8.67;;;;;;;24.35;100.00;101221.09;2072789;28;20178;-67
2022/06/06 01:10:28;;;;;;;13.23;8.73;;;;;;;24.34;100.00;101215.94;2072386;28;20238;-67
2022/06/06 01:11:28;;;;;;;13.33;9.10;;;;;;;24.03;100.00;101168.81;2072938;28;20699;-67
2022/06/06 01:12:32;;;;;;;13.67;8.73;;;;;;;24.33;100.00;101218.03;2072718;28;20186;-67
2022/06/06 01:13:34;;;;;;;12.53;8.53;;;;;;;24.29;100.00;101209.00;2063523;28;20202;-67
2022/06/06 01:14:58;;;;;;;11.37;7.90;;;;;;;24.13;100.00;101183.47;2064341;28;20186;-67
2022/06/06 01:16:19;;;;;;;14.33;7.67;;;;;;;24.05;100.00;101179.63;2072131;28;20556;-67
2022/06/06 01:17:20;;;;;;;11.13;7.27;;;;;;;23.80;100.00;101181.31;2072676;28;20174;-67
2022/06/06 01:19:11;;;;;;;10.50;8.07;;;;;;;23.72;100.00;101185.16;2072088;28;20651;-67
2022/06/06 01:20:23;;;;;;;10.17;7.60;;;;;;;23.52;100.00;101186.13;2055778;28;20225;-67
2022/06/06 01:21:30;;;;;;;10.93;8.03;;;;;;;24.07;100.00;101202.53;2072375;28;20170;-67
2022/06/06 01:22:42;;;;;;;13.33;8.13;;;;;;;23.51;100.00;101197.94;2072642;28;20292;-67
2022/06/06 01:23:46;;;;;;;11.87;8.73;;;;;;;23.53;100.00;101201.03;2072316;28;20232;-68
2022/06/06 01:24:49;;;;;;;13.10;9.00;;;;;;;23.55;100.00;101193.56;2072728;28;20173;-67
2022/06/06 01:26:04;;;;;;;13.23;8.37;;;;;;;23.54;100.00;101186.38;2072040;28;20436;-67
2022/06/06 01:27:10;;;;;;;9.33;8.43;;;;;;;23.50;100.00;101194.31;2072772;28;20886;-67
2022/06/06 01:28:29;;;;;;;9.37;7.83;;;;;;;23.45;100.00;101189.44;2072065;28;20189;-67
2022/06/06 01:29:36;;;;;;;11.17;7.97;;;;;;;23.42;100.00;101190.44;2072747;28;20251;-67
2022/06/06 01:30:43;;;;;;;8.57;7.67;;;;;;;23.33;100.00;101179.34;2072198;28;20232;-67
2022/06/06 01:32:07;;;;;;;12.50;7.93;;;;;;;23.36;100.00;101184.00;2072416;28;20178;-67
2022/06/06 01:33:12;;;;;;;9.20;7.77;;;;;;;23.09;100.00;101142.16;2072388;28;20231;-67
2022/06/06 01:34:22;;;;;;;8.57;7.73;;;;;;;22.90;100.00;101124.09;2072621;28;20425;-67
2022/06/06 01:35:36;;;;;;;12.40;8.03;;;;;;;23.27;100.00;101203.22;2072501;28;20774;-67
2022/06/06 01:36:38;;;;;;;13.07;7.90;;;;;;;23.24;100.00;101187.28;2072742;28;20175;-67
2022/06/06 01:37:41;;;;;;;11.40;8.40;;;;;;;23.22;100.00;101181.34;2072461;28;20427;-67
2022/06/06 01:38:41;;;;;;;12.10;8.13;;;;;;;;;;2072130;28;20427;-67
2022/06/06 01:39:42;;;;;;;8.87;7.97;;;;;;;23.18;100.00;101178.75;2067258;28;20440;-67
2022/06/06 01:40:45;;;;;;;9.20;8.33;;;;;;;23.09;100.00;101181.75;2064070;28;20210;-67
2022/06/06 01:42:18;;;;;;;9.90;8.60;;;;;;;23.05;100.00;101183.28;2069700;28;20178;-67
2022/06/06 01:43:26;;;;;;;10.70;8.20;;;;;;;23.05;100.00;101177.63;2072418;28;20456;-67
2022/06/06 01:44:56;;;;;;;11.13;8.37;;;;;;;23.02;100.00;101199.19;2072531;28;20177;-67
2022/06/06 01:45:58;;;;;;;13.97;9.47;;;;;;;23.10;100.00;101177.66;2063196;28;20564;-67
2022/06/06 01:47:03;;;;;;;9.60;8.17;;;;;;;23.14;100.00;101172.53;2064177;28;20182;-67
2022/06/06 01:48:09;;;;;;;8.63;7.87;;;;;;;23.18;100.00;101175.91;2063157;28;20301;-67
2022/06/06 01:49:12;;;;;;;12.67;8.53;;;;;;;23.24;100.00;101173.88;2065500;28;20271;-67
2022/06/06 01:50:13;;;;;;;8.63;7.67;;;;;;;22.83;100.00;101112.50;2074052;28;20738;-67
2022/06/06 01:51:17;;;;;;;10.00;8.00;;;;;;;23.27;100.00;101172.88;2065027;28;20229;-67
2022/06/06 01:52:17;;;;;;;8.50;7.67;;;;;;;23.31;100.00;101178.31;2066092;28;20460;-67
2022/06/06 01:53:20;;;;;;;10.47;8.43;;;;;;;23.22;100.00;101182.13;2073940;28;20443;-67
2022/06/06 01:54:21;;;;;;;9.23;8.20;;;;;;;23.30;100.00;101188.84;2065502;28;20220;-67
2022/06/06 01:55:22;;;;;;;9.93;8.70;;;;;;;23.21;100.00;101193.94;2065584;28;20249;-67
2022/06/06 01:56:32;;;;;;;8.93;8.10;;;;;;;23.12;100.00;101194.09;2073646;28;20216;-67
2022/06/06 01:57:32;;;;;;;11.90;9.10;;;;;;;23.09;100.00;101183.81;2074294;28;20177;-67
2022/06/06 01:58:34;;;;;;;10.90;8.37;;;;;;;23.15;100.00;101193.88;2073699;28;20428;-67
2022/06/06 01:59:35;;;;;;;9.97;8.07;;;;;;;23.18;100.00;101200.63;2074138;28;20220;-67
2022/06/06 02:00:37;;;;;;;9.43;8.50;;;;;;;23.15;100.00;101205.19;2073580;28;20439;-67
2022/06/06 02:01:38;;;;;;;9.53;8.53;;;;;;;23.17;100.00;101208.28;2073950;28;20235;-67
2022/06/06 02:02:40;;;;;;;10.37;8.13;;;;;;;23.18;100.00;101195.72;2074207;28;21000;-67
2022/06/06 02:03:41;;;;;;;9.37;8.40;;;;;;;23.15;100.00;101195.94;2073912;28;20204;-67
2022/06/06 02:04:41;;;;;;;11.03;8.37;;;;;;;23.18;100.00;101195.72;2065482;28;20978;-67
2022/06/06 02:05:42;;;;;;;14.07;9.27;;;;;;;23.17;100.00;101194.13;2064906;28;20734;-67
2022/06/06 02:06:42;;;;;;;12.40;8.23;;;;;;;23.22;100.00;101192.66;2074347;28;20185;-67
2022/06/06 02:07:44;;;;;;;9.30;8.40;;;;;;;23.23;100.00;101197.81;2074055;28;20228;-67
2022/06/06 02:08:44;;;;;;;8.93;8.10;;;;;;;22.92;100.00;101157.50;2064861;28;20690;-67
2022/06/06 02:09:45;;;;;;;11.47;8.87;;;;;;;23.04;100.00;101202.31;2065176;28;20880;-67
2022/06/06 02:10:46;;;;;;;9.57;8.57;;;;;;;22.44;100.00;101123.53;2056827;28;20195;-67
2022/06/06 02:11:47;;;;;;;10.33;9.17;;;;;;;22.96;100.00;101204.03;2065572;28;20202;-67
2022/06/06 02:12:48;;;;;;;9.60;8.63;;;;;;;22.86;100.00;101199.06;2073881;28;20416;-67
2022/06/06 02:13:49;;;;;;;9.80;8.80;;;;;;;22.98;100.00;101209.19;2073714;28;20169;-67
2022/06/06 02:14:49;;;;;;;9.83;8.23;;;;;;;22.88;100.00;101191.63;2074131;28;20412;-67
2022/06/06 02:15:50;;;;;;;9.53;8.73;;;;;;;22.98;100.00;101209.94;2073344;28;20256;-67
2022/06/06 02:16:50;;;;;;;10.70;9.67;;;;;;;22.44;100.00;101145.31;2074125;28;20177;-68
2022/06/06 02:17:53;;;;;;;10.00;9.00;;;;;;;22.94;100.00;101214.28;2065199;28;20186;-67
2022/06/06 02:18:53;;;;;;;9.60;8.60;;;;;;;22.95;100.00;101232.81;2065303;28;20179;-67
2022/06/06 02:19:54;;;;;;;10.57;9.53;;;;;;;22.84;100.00;101232.72;2065159;28;20469;-67
2022/06/06 02:20:54;;;;;;;10.87;8.80;;;;;;;22.65;100.00;101220.22;2064710;28;20174;-67
2022/06/06 02:21:55;;;;;;;11.60;9.20;;;;;;;22.42;100.00;101193.81;2074041;28;20181;-67
2022/06/06 02:22:56;;;;;;;11.40;10.23;;;;;;;22.71;100.00;101227.47;2074110;28;20181;-67
2022/06/06 02:23:56;;;;;;;10.77;9.67;;;;;;;22.73;100.00;101227.00;2073466;28;20710;-67
2022/06/06 02:24:57;;;;;;;11.07;9.40;;;;;;;21.62;100.00;101058.63;2074111;28;20169;-67
2022/06/06 02:25:58;;;;;;;10.93;8.73;;;;;;;22.70;100.00;101233.63;2073450;28;20569;-67
2022/06/06 02:26:58;;;;;;;11.63;9.23;;;;;;;22.64;100.00;101235.63;2074214;28;20452;-67
2022/06/06 02:27:59;;;;;;;9.60;8.70;;;;;;;22.48;100.00;101208.81;2073510;28;20184;-67
2022/06/06 02:29:00;;;;;;;11.10;9.30;;;;;;;22.58;100.00;101226.34;2074068;28;20268;-68
2022/06/06 02:30:03;;;;;;;11.37;10.03;;;;;;;22.55;100.00;101235.81;2073931;28;20173;-68
2022/06/06 02:31:04;;;;;;;11.83;9.70;;;;;;;22.49;100.00;101251.94;2073410;28;20447;-67
2022/06/06 02:32:08;;;;;;;11.73;10.23;;;;;;;22.35;100.00;101253.56;2073899;28;20186;-68
2022/06/06 02:33:08;;;;;;;12.77;10.67;;;;;;;21.99;100.00;101209.06;2073632;28;20737;-68
2022/06/06 02:34:09;;;;;;;11.27;10.13;;;;;;;22.30;100.00;101262.75;2073921;28;20854;-68
2022/06/06 02:35:13;;;;;;;11.30;10.30;;;;;;;22.34;100.00;101265.38;2073822;28;20690;-68
2022/06/06 02:36:14;;;;;;;10.40;9.40;;;;;;;22.37;100.00;101265.13;2073224;28;20177;-68
2022/06/06 02:37:14;;;;;;;11.40;10.17;;;;;;;22.45;100.00;101273.97;2073900;28;20425;-68
2022/06/06 02:38:15;;;;;;;11.13;10.13;;;;;;;21.99;100.00;101192.13;2073257;28;20192;-67
2022/06/06 02:39:16;;;;;;;12.10;11.00;;;;;;;22.08;100.00;101191.19;2074054;28;20174;-68
2022/06/06 02:40:18;;;;;;;11.60;10.03;;;;;;;22.58;100.00;101263.84;2064922;28;20212;-68
2022/06/06 02:41:19;;;;;;;11.23;10.07;;;;;;;22.61;100.00;101260.00;2064910;28;20186;-68
2022/06/06 02:42:21;;;;;;;9.97;9.07;;;;;;;22.66;100.00;101258.50;2073937;28;20178;-67
2022/06/06 02:43:21;;;;;;;11.43;10.13;;;;;;;22.33;100.00;101224.28;2073666;28;20460;-67
2022/06/06 02:44:23;;;;;;;10.53;9.53;;;;;;;22.54;100.00;101254.03;2073804;28;20220;-68
2022/06/06 02:45:24;;;;;;;10.90;9.33;;;;;;;22.08;100.00;101182.72;2073675;28;20212;-67
2022/06/06 02:46:25;;;;;;;11.60;10.40;;;;;;;22.48;100.00;101264.50;2073689;28;20420;-67
2022/06/06 02:47:25;;;;;;;10.90;9.90;;;;;;;22.62;100.00;101291.88;2065097;28;20203;-68
2022/06/06 02:48:25;;;;;;;11.40;10.30;;;;;;;22.50;100.00;101282.50;2064433;28;20715;-68
2022/06/06 02:49:26;;;;;;;11.13;10.13;;;;;;;21.74;100.00;101192.13;2073923;28;20188;-68
2022/06/06 02:50:30;;;;;;;11.13;10.00;;;;;;;22.46;100.00;101306.63;2073422;28;20185;-68
2022/06/06 02:51:30;;;;;;;11.30;10.00;;;;;;;21.99;100.00;101236.50;2073749;28;20192;-68
2022/06/06 02:52:31;;;;;;;11.20;10.10;;;;;;;22.52;100.00;101308.19;2073620;28;20186;-68
2022/06/06 02:53:32;;;;;;;11.30;10.10;;;;;;;22.13;100.00;101244.09;2073377;28;20173;-68
2022/06/06 02:54:32;;;;;;;9.97;8.97;;;;;;;22.51;100.00;101303.06;2073848;28;20178;-68
2022/06/06 02:55:34;;;;;;;10.40;9.33;;;;;;;22.11;100.00;101250.25;2073000;28;20264;-68
2022/06/06 02:56:34;;;;;;;11.00;10.00;;;;;;;22.47;100.00;101299.69;2065037;28;20759;-68
2022/06/06 02:57:43;;;;;;;11.13;10.10;;;;;;;22.43;100.00;101296.28;2065112;28;20569;-68
2022/06/06 02:58:43;;;;;;;13.33;10.47;;;;;;;22.33;100.00;101292.84;2073321;28;20169;-68
2022/06/06 02:59:48;;;;;;;13.10;10.80;;;;;;;22.29;100.00;101306.41;2073715;28;20184;-68
2022/06/06 03:00:49;;;;;;;10.77;9.73;;;;;;;22.28;100.00;101312.53;2071454;28;20236;-68
2022/06/06 03:01:51;;;;;;;10.23;9.33;;;;;;;22.15;100.00;101295.22;2073561;28;20463;-68
2022/06/06 03:02:52;;;;;;;11.90;9.60;;;;;;;22.25;100.00;101307.88;2073876;28;20188;-68
2022/06/06 03:03:52;;;;;;;10.73;9.70;;;;;;;22.30;100.00;101309.97;2073145;28;20409;-68
2022/06/06 03:04:53;;;;;;;10.97;9.83;;;;;;;22.30;100.00;101298.69;2073852;28;20260;-68
2022/06/06 03:06:05;;;;;;;10.83;9.73;;;;;;;22.40;100.00;101308.56;2064503;28;20197;-68
2022/06/06 03:07:36;;;;;;;12.03;9.90;;;;;;;22.44;100.00;101312.75;2066771;28;20205;-68
2022/06/06 03:09:03;;;;;;;9.63;8.63;;;;;;;22.40;100.00;101312.16;2072849;28;20444;-68
2022/06/06 03:10:25;;;;;;;11.13;9.73;;;;;;;22.33;100.00;101318.25;2073486;28;20643;-68
2022/06/06 03:12:03;;;;;;;10.87;9.23;;;;;;;22.28;100.00;101327.44;2073514;28;20408;-68
2022/06/06 03:13:21;;;;;;;10.07;9.13;;;;;;;22.19;100.00;101329.63;2064470;28;20560;-68
2022/06/06 03:14:27;;;;;;;10.57;9.57;;;;;;;22.02;100.00;101320.97;2067403;28;20441;-68
2022/06/06 03:20:54;;;;;;;12.50;9.57;;;;;;;21.97;100.00;101332.97;2073102;28;20480;-68
2022/06/06 03:22:22;;;;;;;11.17;10.07;;;;;;;21.93;100.00;101334.44;2073633;28;20421;-68
2022/06/06 03:23:43;;;;;;;10.53;9.43;;;;;;;21.50;100.00;101276.88;2073259;28;20172;-68
2022/06/06 03:25:12;;;;;;;12.70;9.67;;;;;;;21.95;100.00;101337.56;2073582;28;20913;-68
2022/06/06 03:26:34;;;;;;;10.30;9.23;;;;;;;21.97;100.00;101335.00;2064245;28;20421;-68
2022/06/06 03:27:43;;;;;;;11.37;9.63;;;;;;;21.89;100.00;101328.22;2068059;28;20409;-68
2022/06/06 03:29:18;;;;;;;10.83;9.73;;;;;;;21.91;100.00;101326.44;2072828;28;20443;-68
2022/06/06 03:30:41;;;;;;;11.10;9.90;;;;;;;22.01;100.00;101333.50;2073411;28;20432;-68
2022/06/06 03:32:03;;;;;;;10.10;9.20;;;;;;;22.03;100.00;101330.19;2062562;28;20436;-68
2022/06/06 03:33:19;;;;;;;11.87;9.50;;;;;;;21.97;100.00;101330.16;2073040;28;20427;-68
2022/06/06 03:34:37;;;;;;;10.33;9.27;;;;;;;22.03;100.00;101330.97;2073594;28;20408;-69
2022/06/06 03:36:02;;;;;;;11.20;9.67;;;;;;;22.01;100.00;101324.28;2073027;28;20177;-67
2022/06/06 03:37:12;;;;;;;11.23;9.93;;;;;;;21.94;100.00;101331.13;2073516;28;20173;-68
2022/06/06 03:38:40;;;;;;;10.93;9.90;;;;;;;21.94;100.00;101339.59;2072773;28;20802;-67
2022/06/06 03:39:51;;;;;;;11.73;10.53;;;;;;;21.90;100.00;101343.91;2073429;28;20412;-68
2022/06/06 03:40:54;;;;;;;11.87;10.50;;;;;;;21.89;100.00;101345.94;2072760;28;20198;-67
2022/06/06 03:42:19;;;;;;;11.43;10.30;;;;;;;21.80;100.00;101346.06;2073340;28;20542;-68
2022/06/06 03:44:05;;;;;;;12.03;10.27;;;;;;;21.84;100.00;101346.63;2073086;28;20405;-67
2022/06/06 03:45:16;;;;;;;11.50;9.77;;;;;;;21.53;100.00;101287.19;2073688;28;20396;-68
2022/06/06 03:46:40;;;;;;;11.87;10.37;;;;;;;21.93;100.00;101348.53;2072837;28;20409;-68
2022/06/06 03:47:46;;;;;;;11.17;10.07;;;;;;;21.94;100.00;101345.22;2073490;28;20405;-68
2022/06/06 03:48:52;;;;;;;10.83;9.77;;;;;;;21.90;100.00;101350.31;2072863;28;20777;-68
2022/06/06 03:49:56;;;;;;;11.20;10.10;;;;;;;21.98;100.00;101365.56;2073259;28;20455;-68
2022/06/06 03:51:44;;;;;;;10.83;9.73;;;;;;;22.03;100.00;101364.84;2072724;28;20424;-67
2022/06/06 03:52:53;;;;;;;13.43;10.63;;;;;;;21.99;100.00;101369.13;2032515;29;20435;-68
2022/06/06 03:53:57;;;;;;;13.43;10.63;;;;;;;21.99;100.00;101366.31;2059057;28;20925;-68
2022/06/06 03:55:19;;;;;;;11.43;9.97;;;;;;;21.99;100.00;101363.50;2064683;28;20456;-67
2022/06/06 03:56:28;;;;;;;12.43;9.97;;;;;;;21.95;100.00;101368.59;2064822;28;20464;-67
2022/06/06 03:57:31;;;;;;;11.50;10.40;;;;;;;21.87;100.00;101368.22;2065398;28;20174;-68
2022/06/06 03:58:33;;;;;;;11.00;9.70;;;;;;;21.63;100.00;101338.59;2064671;28;20804;-68
2022/06/06 03:59:37;;;;;;;11.33;10.13;;;;;;;21.88;100.00;101386.72;2065255;28;20421;-67
2022/06/06 04:00:39;;;;;;;12.30;10.13;;;;;;;21.86;100.00;101388.47;2064923;28;20418;-68
2022/06/06 04:01:41;;;;;;;12.37;10.60;;;;;;;21.92;100.00;101386.50;2057912;28;20507;-68
2022/06/06 04:02:44;;;;;;;12.33;10.23;;;;;;;21.97;100.00;101397.09;2059127;28;20449;-67
2022/06/06 04:03:46;;;;;;;11.53;10.27;;;;;;;21.99;100.00;101395.34;2066657;28;20421;-67
2022/06/06 04:04:48;;;;;;;11.03;9.83;;;;;;;21.97;100.00;101388.63;2065263;28;20424;-67
2022/06/06 04:05:48;;;;;;;11.83;10.63;;;;;;;22.09;100.00;101399.56;2064931;28;20417;-67
2022/06/06 04:06:51;;;;;;;13.07;10.13;;;;;;;22.08;100.00;101386.72;2065105;28;20425;-68
2022/06/06 04:07:52;;;;;;;10.80;9.70;;;;;;;22.19;100.00;101395.34;2064965;28;20182;-68
2022/06/06 04:08:52;;;;;;;14.00;10.30;;;;;;;22.15;100.00;101388.38;2065218;28;20198;-67
2022/06/06 04:09:53;;;;;;;14.30;10.07;;;;;;;21.34;100.00;101276.69;2065216;28;20556;-67
2022/06/06 04:11:03;;;;;;;11.23;10.10;;;;;;;22.17;100.00;101399.94;2064849;28;20182;-68
2022/06/06 04:12:36;;;;;;;11.07;9.90;;;;;;;22.21;100.00;101392.03;2064902;28;20210;-68
2022/06/06 04:13:37;;;;;;;11.87;9.27;;;;;;;22.26;100.00;101388.50;2064640;28;20580;-67
2022/06/06 04:15:06;;;;;;;14.10;9.87;;;;;;;22.17;100.00;101368.88;2065339;28;20417;-67
2022/06/06 04:16:22;;;;;;;10.63;9.53;;;;;;;22.14;100.00;101367.81;2064762;28;20173;-67
2022/06/06 04:17:39;;;;;;;11.77;10.43;;;;;;;21.98;100.00;101373.25;2065106;28;20273;-67
2022/06/06 04:19:05;;;;;;;10.67;9.57;;;;;;;21.45;100.00;101299.38;2064775;28;20809;-67
2022/06/06 04:20:22;;;;;;;11.30;10.10;;;;;;;21.80;100.00;101348.88;2064832;28;20453;-68
2022/06/06 04:22:07;;;;;;;10.27;9.10;;;;;;;22.07;100.00;101381.56;2064938;28;20954;-67
2022/06/06 04:23:27;;;;;;;17.80;10.27;;;;;;;21.98;100.00;101376.06;2066850;28;20422;-67
2022/06/06 04:25:01;;;;;;;11.47;10.27;;;;;;;21.93;100.00;101376.75;2073129;28;20411;-67
2022/06/06 04:26:23;;;;;;;11.00;10.00;;;;;;;21.94;100.00;101379.09;2072832;28;20498;-67
2022/06/06 04:28:06;;;;;;;11.53;10.40;;;;;;;21.50;100.00;101315.59;2073103;28;20787;-67
2022/06/06 04:29:09;;;;;;;14.23;10.23;;;;;;;21.96;100.00;101379.38;2073270;28;20449;-67
2022/06/06 04:30:28;;;;;;;13.33;11.07;;;;;;;21.97;100.00;101386.59;2073142;28;20851;-67
2022/06/06 04:31:40;;;;;;;11.93;10.10;;;;;;;21.90;100.00;101395.44;2073072;28;20412;-67
2022/06/06 04:33:00;;;;;;;11.27;10.17;;;;;;;21.84;100.00;101393.81;2072919;28;20485;-67
2022/06/06 04:34:25;;;;;;;11.87;10.27;;;;;;;21.86;100.00;101394.88;2063868;28;20930;-67
2022/06/06 04:35:44;;;;;;;14.27;10.63;;;;;;;21.92;100.00;101403.44;2067502;28;20448;-67
2022/06/06 04:36:59;;;;;;;12.60;10.60;;;;;;;22.00;100.00;101399.69;2073020;28;20407;-67
2022/06/06 04:38:43;;;;;;;12.47;10.87;;;;;;;22.03;100.00;101398.72;2072615;28;20411;-68
2022/06/06 04:40:14;;;;;;;14.27;9.70;;;;;;;22.04;100.00;101391.00;2072870;28;20597;-67
2022/06/06 04:41:27;;;;;;;11.87;9.80;;;;;;;22.07;100.00;101399.31;2072238;28;20886;-67
2022/06/06 04:42:54;;;;;;;11.03;9.93;;;;;;;22.08;100.00;101403.66;2072905;28;20865;-67
2022/06/06 04:44:19;;;;;;;12.53;10.13;;;;;;;22.10;100.00;101403.94;2072041;28;21013;-67
2022/06/06 04:45:31;;;;;;;11.77;10.67;;;;;;;21.61;100.00;101347.56;2072827;28;20471;-67
2022/06/06 04:46:47;;;;;;;11.97;10.40;;;;;;;22.19;100.00;101403.03;2072696;28;20413;-67
2022/06/06 04:47:49;;;;;;;11.87;10.67;;;;;;;22.18;100.00;101404.31;2072528;28;20413;-67
2022/06/06 04:48:50;;;;;;;12.17;11.00;;;;;;;21.82;100.00;101348.41;2072291;28;20412;-67
2022/06/06 04:49:52;;;;;;;12.57;11.27;;;;;;;22.22;100.00;101411.28;2063177;28;20281;-68
2022/06/06 04:50:54;;;;;;;11.33;10.23;;;;;;;21.82;100.00;101363.28;2063585;28;20417;-67
2022/06/06 04:51:58;;;;;;;14.27;11.27;;;;;;;22.09;100.00;101404.44;2069559;28;20463;-67
2022/06/06 04:53:03;;;;;;;12.03;10.83;;;;;;;22.08;100.00;101406.50;2067877;28;20562;-67
2022/06/06 04:54:05;;;;;;;12.63;11.37;;;;;;;21.90;100.00;101375.69;2065740;28;20507;-67
2022/06/06 04:55:07;;;;;;;11.73;10.63;;;;;;;22.06;100.00;101397.72;2069927;28;20182;-67
2022/06/06 04:56:08;;;;;;;12.73;10.80;;;;;;;22.10;100.00;101406.00;2067077;28;20185;-67
2022/06/06 04:57:11;;;;;;;12.77;10.97;;;;;;;22.07;100.00;101404.94;2066081;28;20458;-68
2022/06/06 04:58:12;;;;;;;12.63;11.37;;;;;;;21.78;100.00;101384.50;2070342;28;20436;-67
2022/06/06 04:59:14;;;;;;;12.20;10.97;;;;;;;22.00;100.00;101416.63;2069859;28;20435;-67
2022/06/06 05:00:16;;;;;;;13.60;11.57;;;;;;;22.01;100.00;101426.66;2069008;28;20456;-67
2022/06/06 05:01:17;;;;;;;12.57;11.17;;;;;;;22.04;100.00;101448.25;2062567;28;20849;-67
2022/06/06 05:02:19;;;;;;;11.97;10.73;;;;;;;22.05;100.00;101418.75;2066612;28;20443;-67
2022/06/06 05:03:19;;;;;;;19.00;14.63;;;;;;;21.66;100.00;101341.25;2069131;28;20428;-67
2022/06/06 05:04:20;;;;;;;26.03;15.40;;;;;;;22.16;100.00;101412.50;2062754;28;20902;-67
2022/06/06 05:05:26;;;;;;;13.30;11.47;;;;;;;22.13;100.00;101394.50;2051888;28;20237;-67
2022/06/06 05:07:02;;;;;;;12.10;10.90;;;;;;;22.40;100.00;101442.06;2055846;28;20210;-68
2022/06/06 05:08:18;;;;;;;12.23;11.03;;;;;;;22.35;100.00;101447.63;2029233;29;21007;-67
2022/06/06 05:09:40;;;;;;;11.70;10.50;;;;;;;22.21;100.00;101440.78;2025771;29;20485;-67
2022/06/06 05:11:02;;;;;;;12.47;11.13;;;;;;;22.20;100.00;101442.06;2055445;28;20533;-68
2022/06/06 05:12:26;;;;;;;13.47;11.23;;;;;;;22.22;100.00;101442.34;2067907;28;20531;-67
2022/06/06 05:14:14;;;;;;;12.77;11.30;;;;;;;22.27;100.00;101438.81;2050074;28;20516;-67
2022/06/06 05:15:41;;;;;;;11.80;10.63;;;;;;;22.29;100.00;101446.78;2053571;28;20463;-68
2022/06/06 05:16:50;;;;;;;17.33;10.87;;;;;;;22.05;100.00;101418.00;2067774;28;20436;-67
2022/06/06 05:18:09;;;;;;;12.07;10.97;;;;;;;22.22;100.00;101438.75;2075145;28;20416;-67